Time;durP1;ratioP1;P1;durP2;ratioP2;P2;SDS_P1;SDS_P2;PMS_P1;PMS_P2;Temp;Humidity;BMP_temperature;BMP_pressure;BME280_temperature;BME280_humidity;BME280_pressure;Samples;Min_cycle;Max_cycle;Signal;HPM_P1;HPM_P2
2021/12/01 00:02:07;;;;;;;;;;;4.90;99.90;;;3.75;100.00;95084.00;10486033;28;1979;-68
2021/12/01 00:07:11;;;;;;;;;;;4.80;99.90;;;3.73;100.00;95107.34;10483747;28;1914;-69
2021/12/01 00:12:14;;;;;;;;;;;4.80;99.90;;;3.73;100.00;95096.72;10476194;28;1895;-70
2021/12/01 00:17:17;;;;;;;;;;;4.90;99.90;;;3.76;100.00;95101.56;10470375;28;1914;-69
2021/12/01 00:22:20;;;;;;;;;;;4.90;99.90;;;3.72;100.00;95081.03;10490144;28;2046;-68
2021/12/01 00:27:23;;;;;;;;;;;4.90;99.90;;;3.69;100.00;95060.25;10475618;28;2077;-70
2021/12/01 00:32:25;;;;;;;;;;;5.20;99.90;;;3.64;100.00;95074.31;10489304;28;1958;-69
2021/12/01 00:37:28;;;;;;;;;;;4.00;99.90;;;3.60;100.00;95075.84;10481829;28;1946;-69
2021/12/01 00:42:32;;;;;;;;;;;4.70;99.90;;;3.55;100.00;95073.09;10486230;28;1965;-69
2021/12/01 00:47:43;;;;;;;;;;;4.70;99.90;;;3.51;100.00;95061.38;10477985;28;1848;-68
2021/12/01 00:52:46;;;;;;;;;;;4.60;99.90;;;3.52;100.00;95052.34;10480174;28;1902;-68
2021/12/01 00:57:50;;;;;;;;;;;4.60;99.90;;;3.53;100.00;95062.72;10474875;28;1929;-68
2021/12/01 01:02:53;;;;;;;;;;;4.60;99.90;;;3.61;100.00;95056.19;10481134;28;1979;-69
2021/12/01 01:07:56;;;;;;;;;;;5.00;99.90;;;3.65;100.00;95051.97;10467068;28;1882;-68
2021/12/01 01:18:21;;;;;;;;;;;4.80;99.90;;;3.83;100.00;95047.41;10478572;28;1882;-68
2021/12/01 01:23:24;;;;;;;;;;;4.90;99.90;;;3.97;100.00;95046.75;10478764;28;1964;-68
2021/12/01 01:28:27;;;;;;;;;;;4.90;99.90;;;3.98;100.00;95040.38;10467683;28;1925;-69
2021/12/01 01:33:30;;;;;;;;;;;5.40;99.90;;;4.10;100.00;95021.63;10473875;28;1910;-69
2021/12/01 01:38:32;;;;;;;;;;;5.10;99.90;;;4.12;100.00;95014.19;10475574;28;2157;-69
2021/12/01 01:43:35;;;;;;;;;;;5.20;99.90;;;4.20;100.00;94999.63;10488206;28;1917;-68
2021/12/01 01:48:47;;;;;;;;;;;5.60;99.90;;;4.23;100.00;94983.19;10480842;28;1902;-69
2021/12/01 01:53:53;;;;;;;;;;;5.30;99.90;;;4.22;100.00;94998.34;10479672;28;2045;-69
2021/12/01 01:58:55;;;;;;;;;;;5.30;99.90;;;4.30;100.00;94997.88;10488631;28;1969;-69
2021/12/01 02:03:58;;;;;;;;;;;5.40;99.90;;;4.29;100.00;94990.94;10485885;28;2013;-69
2021/12/01 02:09:01;;;;;;;;;;;5.50;99.90;;;4.29;100.00;95004.25;10515590;28;1982;-69
2021/12/01 02:14:24;;;;;;;;;;;5.40;99.90;;;4.39;99.96;94976.13;10482259;28;1948;-69
2021/12/01 02:19:29;;;;;;;;;;;5.40;99.90;;;4.42;100.00;94970.31;10484602;28;1918;-69
2021/12/01 02:24:33;;;;;;;;;;;5.70;99.90;;;4.39;100.00;94960.16;10495191;28;1908;-69
2021/12/01 02:29:36;;;;;;;;;;;5.60;99.90;;;4.42;98.96;94959.66;10489567;28;1918;-70
2021/12/01 02:34:59;;;;;;;;;;;5.50;99.90;;;4.42;99.61;94949.00;10486290;28;1933;-69
2021/12/01 02:40:11;;;;;;;;;;;5.60;99.90;;;4.43;98.94;94942.63;10485410;28;1980;-70
2021/12/01 02:45:13;;;;;;;;;;;5.50;99.90;;;4.43;99.68;94937.31;10480959;28;1918;-70
2021/12/01 02:50:16;;;;;;;;;;;5.60;99.90;;;4.49;98.84;94918.47;10488201;28;1941;-69
2021/12/01 02:55:19;;;;;;;;;;;5.70;99.90;;;4.47;98.46;94899.28;10471284;28;1867;-69
2021/12/01 03:00:22;;;;;;;;;;;5.60;99.90;;;4.43;98.93;94908.84;10483738;28;1971;-69
2021/12/01 03:05:25;;;;;;;;;;;5.70;99.90;;;4.44;98.70;94904.31;10478652;28;1899;-70
2021/12/01 03:10:28;;;;;;;;;;;5.50;99.90;;;4.47;98.87;94891.31;10497173;28;1899;-70
2021/12/01 03:15:31;;;;;;;;;;;5.60;99.90;;;4.49;98.64;94896.38;10488628;28;1911;-70
2021/12/01 03:20:33;;;;;;;;;;;5.60;99.90;;;4.47;100.00;94893.97;10479372;28;1913;-69
2021/12/01 03:25:36;;;;;;;;;;;5.60;99.90;;;4.42;99.12;94890.47;10467945;28;1753;-69
2021/12/01 03:30:39;;;;;;;;;;;5.50;99.90;;;4.45;99.71;94884.63;10470269;28;1903;-69
2021/12/01 03:35:42;;;;;;;;;;;5.60;99.90;;;4.47;99.48;94882.53;10481835;28;1999;-69
2021/12/01 03:40:45;;;;;;;;;;;5.60;99.90;;;4.50;99.82;94882.00;10484906;28;1910;-68
2021/12/01 03:45:48;;;;;;;;;;;5.60;99.90;;;4.49;99.20;94870.56;10479883;28;1990;-69
2021/12/01 03:50:51;;;;;;;;;;;5.60;99.90;;;4.55;99.36;94864.19;10493456;28;1927;-68
2021/12/01 03:55:53;;;;;;;;;;;5.60;99.90;;;4.52;98.97;94856.75;10478178;28;2010;-69
2021/12/01 04:00:56;;;;;;;;;;;5.60;99.90;;;4.60;98.25;94863.44;10485126;28;1989;-69
2021/12/01 04:05:59;;;;;;;;;;;5.70;99.90;;;4.63;98.25;94854.13;10477900;28;2084;-69
2021/12/01 04:11:02;;;;;;;;;;;5.70;99.90;;;4.54;100.00;94840.50;10482979;28;1935;-70
2021/12/01 04:16:12;;;;;;;;;;;5.70;99.90;;;4.41;100.00;94843.63;10481494;28;1974;-69
2021/12/01 04:21:35;;;;;;;;;;;5.90;99.90;;;4.39;100.00;94833.25;10477470;28;1974;-70
2021/12/01 04:26:38;;;;;;;;;;;5.50;99.90;;;4.43;100.00;94817.56;10469306;28;1776;-70
2021/12/01 04:31:41;;;;;;;;;;;5.50;99.90;;;4.42;100.00;94816.75;10489344;28;1351;-70
2021/12/01 04:36:44;;;;;;;;;;;5.50;99.90;;;4.44;100.00;94806.66;10497961;28;1644;-70
2021/12/01 04:41:52;;;;;;;;;;;5.50;99.90;;;4.47;100.00;94802.69;10480365;28;2006;-70
2021/12/01 04:46:56;;;;;;;;;;;5.60;99.90;;;4.58;100.00;94788.34;10481335;28;2025;-69
2021/12/01 04:52:00;;;;;;;;;;;5.60;99.90;;;4.63;100.00;94790.25;10481031;28;2037;-70
2021/12/01 04:57:02;;;;;;;;;;;5.70;99.90;;;4.58;100.00;94772.38;10482097;28;1859;-70
2021/12/01 05:02:05;;;;;;;;;;;5.70;99.90;;;4.66;98.73;94763.91;10477475;28;2045;-69
2021/12/01 05:07:08;;;;;;;;;;;5.70;99.90;;;4.72;98.34;94764.72;10502652;28;1884;-69
2021/12/01 05:12:11;;;;;;;;;;;5.80;99.90;;;4.69;98.52;94757.25;10475383;28;1985;-69
2021/12/01 05:17:14;;;;;;;;;;;5.80;99.90;;;4.66;100.00;94747.16;10484108;28;2053;-69
2021/12/01 05:22:17;;;;;;;;;;;5.80;99.90;;;4.64;99.64;94734.06;10473989;28;1976;-69
2021/12/01 05:27:20;;;;;;;;;;;5.80;99.90;;;4.56;100.00;94724.75;10478976;28;1918;-69
2021/12/01 05:32:22;;;;;;;;;;;5.70;99.90;;;4.52;100.00;94714.91;10481511;28;1875;-69
2021/12/01 05:37:25;;;;;;;;;;;5.70;99.90;;;4.57;100.00;94723.66;10494841;28;1945;-69
2021/12/01 05:42:28;;;;;;;;;;;5.60;99.90;;;4.51;100.00;94715.94;10481474;28;1991;-69
2021/12/01 05:47:31;;;;;;;;;;;5.60;99.90;;;4.50;100.00;94703.69;10475482;28;1867;-69
2021/12/01 05:52:34;;;;;;;;;;;5.60;99.90;;;4.49;100.00;94726.06;10481024;28;1927;-69
2021/12/01 05:57:37;;;;;;;;;;;5.70;99.90;;;4.42;100.00;94720.16;10485342;28;1883;-69
2021/12/01 06:02:42;;;;;;;;;;;5.60;99.90;;;4.23;100.00;94709.97;10480377;28;2002;-69
2021/12/01 06:07:45;;;;;;;;;;;5.40;99.90;;;4.09;100.00;94695.56;10478877;28;1924;-70
2021/12/01 06:12:48;;;;;;;;;;;5.30;99.90;;;4.08;100.00;94691.31;10469603;28;2160;-70
2021/12/01 06:17:51;;;;;;;;;;;5.20;99.90;;;4.00;100.00;94683.81;10479826;28;2089;-70
2021/12/01 06:22:54;;;;;;;;;;;5.20;99.90;;;3.97;100.00;94677.16;10469873;28;2005;-70
2021/12/01 06:27:57;;;;;;;;;;;5.00;99.90;;;3.97;100.00;94674.50;10483553;28;1958;-71
2021/12/01 06:33:00;;;;;;;;;;;5.00;99.90;;;3.92;100.00;94658.50;10484421;28;1902;-71
2021/12/01 06:38:02;;;;;;;;;;;5.00;99.90;;;3.90;100.00;94659.84;10489757;28;1946;-70
2021/12/01 06:43:05;;;;;;;;;;;5.00;99.90;;;3.95;100.00;94651.91;10483967;28;1918;-69
2021/12/01 06:48:08;;;;;;;;;;;5.00;99.90;;;4.01;100.00;94656.19;10492969;28;1945;-70
2021/12/01 06:53:11;;;;;;;;;;;5.20;99.90;;;4.06;100.00;94651.66;10480429;28;1864;-70
2021/12/01 06:58:15;;;;;;;;;;;5.10;99.90;;;4.09;100.00;94638.91;10492110;28;2111;-70
2021/12/01 07:03:18;;;;;;;;;;;5.10;99.90;;;4.22;100.00;94625.13;10481503;28;2081;-70
2021/12/01 07:08:22;;;;;;;;;;;5.20;99.90;;;4.24;100.00;94621.13;10471884;28;1883;-74
2021/12/01 07:13:24;;;;;;;;;;;5.30;99.90;;;4.28;100.00;94614.25;10490564;28;1969;-75
2021/12/01 07:18:27;;;;;;;;;;;5.40;99.90;;;4.34;100.00;94621.19;10481900;28;1875;-75
2021/12/01 07:23:30;;;;;;;;;;;5.40;99.90;;;4.43;100.00;94618.78;10481864;28;2010;-75
2021/12/01 07:28:36;;;;;;;;;;;5.50;99.90;;;4.52;100.00;94619.88;10486559;28;1836;-77
2021/12/01 07:33:38;;;;;;;;;;;5.60;99.90;;;4.59;100.00;94603.66;10488302;28;1887;-78
2021/12/01 07:38:41;;;;;;;;;;;5.60;99.90;;;4.66;100.00;94595.41;10482424;28;1977;-74
2021/12/01 07:43:44;;;;;;;;;;;5.80;99.90;;;4.71;100.00;94601.56;10482656;28;1981;-75
2021/12/01 07:48:47;;;;;;;;;;;5.80;99.90;;;4.70;100.00;94583.97;10478667;28;1922;-74
2021/12/01 07:53:50;;;;;;;;;;;5.80;99.90;;;4.80;100.00;94570.66;10482027;28;2041;-74
2021/12/01 07:58:53;;;;;;;;;;;5.80;99.90;;;4.85;100.00;94568.00;10492516;28;1948;-73
2021/12/01 08:03:56;;;;;;;;;;;5.90;99.90;;;4.86;100.00;94561.59;10473335;28;2305;-73
2021/12/01 08:09:00;;;;;;;;;;;5.90;99.90;;;4.92;99.69;94559.75;10478919;28;2057;-73
2021/12/01 08:14:06;;;;;;;;;;;5.90;99.90;;;4.94;98.78;94556.81;10478972;28;1918;-72
2021/12/01 08:19:08;;;;;;;;;;;6.00;99.90;;;4.87;97.22;94549.88;10468695;28;1895;-73
2021/12/01 08:24:12;;;;;;;;;;;6.70;99.90;;;4.90;98.24;94540.59;10480758;28;1922;-72
2021/12/01 08:29:15;;;;;;;;;;;6.00;99.90;;;4.96;99.12;94544.00;10473455;28;2147;-75
2021/12/01 08:34:17;;;;;;;;;;;6.00;99.90;;;5.09;97.32;94514.16;10473921;28;1988;-74
2021/12/01 08:39:20;;;;;;;;;;;6.10;99.90;;;5.07;97.27;94522.44;10481043;28;2377;-76
2021/12/01 08:44:23;;;;;;;;;;;6.10;99.90;;;4.93;96.67;94532.03;10464030;28;2113;-75
2021/12/01 08:49:26;;;;;;;;;;;6.00;99.90;;;5.03;96.27;94528.59;10475677;28;2389;-76
2021/12/01 08:54:29;;;;;;;;;;;6.30;99.90;;;5.06;95.35;94528.03;10476288;28;2141;-77
2021/12/01 08:59:32;;;;;;;;;;;6.10;99.90;;;5.38;92.56;94520.50;10474694;28;2033;-76
2021/12/01 09:04:35;;;;;;;;;;;6.20;99.90;;;5.59;91.91;94504.41;10484111;28;2001;-75
2021/12/01 09:09:38;;;;;;;;;;;6.50;99.90;;;5.55;91.90;94508.72;10473332;28;1957;-75
2021/12/01 09:14:42;;;;;;;;;;;6.60;99.90;;;5.55;90.30;94504.19;10474333;28;2089;-75
2021/12/01 09:19:45;;;;;;;;;;;6.70;99.90;;;5.63;89.38;94502.81;10486851;28;1887;-74
2021/12/01 09:24:48;;;;;;;;;;;6.70;99.90;;;5.75;89.29;94503.28;10475174;28;1945;-75
2021/12/01 09:29:51;;;;;;;;;;;6.80;99.90;;;5.91;88.68;94498.69;10474253;28;2246;-74
2021/12/01 09:34:54;;;;;;;;;;;6.90;99.90;;;6.01;88.43;94506.66;10479617;28;2254;-74
2021/12/01 09:39:56;;;;;;;;;;;7.00;99.90;;;5.95;89.42;94489.88;10482066;28;2096;-74
2021/12/01 09:44:59;;;;;;;;;;;7.10;99.90;;;5.96;89.72;94474.66;10469880;28;1909;-76
2021/12/01 09:50:02;;;;;;;;;;;7.10;99.90;;;6.03;88.92;94461.81;10479505;28;1848;-73
2021/12/01 09:55:06;;;;;;;;;;;7.40;99.90;;;6.18;86.99;94455.59;10467704;28;1861;-74
2021/12/01 10:00:09;;;;;;;;;;;;;;;6.45;87.03;94436.44;10478746;28;1825;-73
2021/12/01 10:05:13;;;;;;;;;;;;;;;6.71;83.29;94427.13;10488344;28;1906;-73
2021/12/01 10:10:20;;;;;;;;;;;;;;;6.97;81.95;94422.31;10490486;28;1899;-75
2021/12/01 10:15:23;;;;;;;;;;;7.90;99.90;;;7.33;80.01;94400.53;10501848;28;2167;-74
2021/12/01 10:20:26;;;;;;;;;;;8.10;99.90;;;7.55;77.68;94392.75;10480047;28;1980;-70
2021/12/01 10:25:28;;;;;;;;;;;8.40;99.90;;;7.66;76.10;94373.91;10485317;28;1931;-71
2021/12/01 10:30:31;;;;;;;;;;;8.60;99.90;;;7.74;74.74;94365.22;10488841;28;1937;-69
2021/12/01 10:35:34;;;;;;;;;;;8.80;99.90;;;7.62;75.53;94340.78;10487820;28;1950;-71
2021/12/01 10:40:37;;;;;;;;;;;8.70;99.90;;;7.71;73.30;94331.03;10489611;28;2024;-69
2021/12/01 10:45:40;;;;;;;;;;;8.70;99.90;;;7.52;73.23;94315.81;10490978;28;1906;-70
2021/12/01 10:50:43;;;;;;;;;;;8.70;99.90;;;7.62;73.79;94287.31;10487001;28;1887;-71
2021/12/01 10:55:46;;;;;;;;;;;8.70;99.90;;;7.66;73.80;94282.97;10482292;28;2261;-71
2021/12/01 11:00:49;;;;;;;;;;;8.70;99.90;;;7.81;72.05;94254.09;10478701;28;2127;-71
2021/12/01 11:05:52;;;;;;;;;;;8.70;99.90;;;7.98;73.28;94237.50;10489061;28;2219;-72
2021/12/01 11:10:55;;;;;;;;;;;8.90;99.90;;;8.20;71.64;94219.97;10488986;28;2305;-71
2021/12/01 11:15:57;;;;;;;;;;;9.10;99.90;;;8.34;73.24;94202.06;10467673;28;2317;-71
2021/12/01 11:21:22;;;;;;;;;;;9.10;99.90;;;8.27;71.49;94207.00;10501300;28;2265;-71
2021/12/01 11:26:26;;;;;;;;;;;9.20;99.90;;;8.13;72.82;94209.66;10510536;28;1934;-73
2021/12/01 11:31:29;;;;;;;;;;;9.20;99.90;;;8.16;71.92;94208.28;10511157;28;2102;-73
2021/12/01 11:36:32;;;;;;;;;;;9.10;99.90;;;8.10;72.92;94186.19;10460125;28;2352;-74
2021/12/01 11:41:36;;;;;;;;;;;9.10;99.90;;;8.00;73.99;94184.47;10474596;28;2040;-73
2021/12/01 11:46:39;;;;;;;;;;;9.00;99.90;;;7.97;74.36;94169.03;10493492;28;1984;-75
2021/12/01 11:51:44;;;;;;;;;;;9.00;99.90;;;7.95;74.96;94159.69;10526764;28;1639;-74
2021/12/01 11:56:47;;;;;;;;;;;9.00;99.90;;;7.93;74.64;94143.94;10517337;28;1888;-75
2021/12/01 12:01:49;;;;;;;;;;;9.00;99.90;;;7.99;74.44;94145.44;10502391;28;2198;-76
2021/12/01 12:06:53;;;;;;;;;;;9.00;99.90;;;8.05;75.33;94120.16;10493913;28;2146;-76
2021/12/01 12:11:56;;;;;;;;;;;9.00;99.90;;;8.07;74.88;94106.47;10481322;28;2277;-76
2021/12/01 12:16:59;;;;;;;;;;;9.00;99.90;;;8.16;74.64;94069.13;10508241;28;2163;-75
2021/12/01 12:22:02;;;;;;;;;;;9.10;99.90;;;8.28;73.49;94064.84;10530830;28;1906;-76
2021/12/01 12:27:05;;;;;;;;;;;9.20;99.90;;;8.30;74.79;94070.66;10481927;28;1927;-75
2021/12/01 12:32:08;;;;;;;;;;;9.20;99.90;;;8.25;73.90;94052.03;10462189;28;1844;-75
2021/12/01 12:37:11;;;;;;;;;;;9.30;99.90;;;8.34;74.20;94042.22;10477842;28;1872;-74
2021/12/01 12:42:14;;;;;;;;;;;9.30;99.90;;;8.50;74.50;94026.63;10482719;28;2266;-75
2021/12/01 12:47:19;;;;;;;;;;;9.40;99.90;;;8.60;73.33;94004.97;10502020;28;1961;-73
2021/12/01 12:52:21;;;;;;;;;;;9.50;99.90;;;8.70;72.63;93984.38;10476132;28;1943;-73
2021/12/01 12:57:25;;;;;;;;;;;9.60;99.90;;;8.72;73.09;93984.88;10488690;28;1940;-75
2021/12/01 13:02:28;;;;;;;;;;;9.90;99.90;;;8.80;72.85;93971.53;10477170;28;1967;-74
2021/12/01 13:07:45;;;;;;;;;;;9.90;99.90;;;8.88;71.15;93964.66;10497147;28;1910;-76
2021/12/01 13:12:48;;;;;;;;;;;9.90;99.90;;;8.83;71.99;93951.38;10473626;28;1884;-73
2021/12/01 13:17:51;;;;;;;;;;;9.90;99.90;;;11.20;63.63;93940.34;10489289;28;1997;-70
2021/12/01 13:22:54;;;;;;;;;;;12.50;99.90;;;10.23;63.73;93949.63;10471547;28;1927;-77
2021/12/01 13:27:57;;;;;;;;;;;11.70;99.90;;;9.39;69.44;93942.66;10495750;28;1946;-77
2021/12/01 13:32:59;;;;;;;;;;;10.80;99.90;;;9.14;68.81;93940.66;10495621;28;1932;-77
2021/12/01 13:38:02;;;;;;;;;;;10.30;99.90;;;9.01;69.30;93933.50;10492179;28;1902;-75
2021/12/01 13:43:05;;;;;;;;;;;10.10;99.90;;;8.96;68.94;93915.66;10479369;28;1973;-73
2021/12/01 13:48:08;;;;;;;;;;;9.90;99.90;;;8.98;67.86;93902.75;10480278;28;1931;-74
2021/12/01 13:53:11;;;;;;;;;;;9.90;99.90;;;8.99;67.30;93901.66;10480042;28;1776;-74
2021/12/01 13:58:14;;;;;;;;;;;9.90;99.90;;;8.96;67.66;93896.91;10504773;28;2019;-74
2021/12/01 14:03:17;;;;;;;;;;;9.90;99.90;;;9.00;65.61;93892.50;10475714;28;1995;-73
2021/12/01 14:08:21;;;;;;;;;;;9.90;99.90;;;8.94;65.85;93878.47;10490737;28;1857;-74
2021/12/01 14:13:25;;;;;;;;;;;9.90;99.90;;;8.91;66.09;93873.72;10484114;28;1887;-74
2021/12/01 14:18:28;;;;;;;;;;;9.90;99.90;;;8.91;66.37;93856.88;10484508;28;1967;-75
2021/12/01 14:23:31;;;;;;;;;;;9.90;99.90;;;8.91;66.55;93854.19;10474622;28;1932;-73
2021/12/01 14:28:34;;;;;;;;;;;9.80;99.90;;;8.86;67.20;93846.28;10478686;28;2014;-74
2021/12/01 14:33:37;;;;;;;;;;;9.80;99.90;;;8.86;67.06;93838.25;10486113;28;1947;-72
2021/12/01 14:38:40;;;;;;;;;;;9.80;99.90;;;8.79;67.22;93843.25;10484331;28;2064;-74
2021/12/01 14:43:43;;;;;;;;;;;9.80;99.90;;;8.82;67.17;93837.25;10490875;28;1926;-73
2021/12/01 14:48:46;;;;;;;;;;;9.70;99.90;;;8.76;66.76;93827.78;10476196;28;2169;-73
2021/12/01 14:53:49;;;;;;;;;;;9.80;99.90;;;8.79;66.70;93821.81;10477142;28;2087;-76
2021/12/01 14:58:52;;;;;;;;;;;9.80;99.90;;;8.76;66.63;93825.09;10474599;28;2224;-73
2021/12/01 15:03:55;;;;;;;;;;;10.10;99.90;;;8.69;66.16;93838.94;10462960;28;2316;-72
2021/12/01 15:08:58;;;;;;;;;;;9.90;99.90;;;8.66;65.07;93837.69;10470217;28;1947;-75
2021/12/01 15:14:01;;;;;;;;;;;9.70;99.90;;;8.52;65.63;93810.19;10502646;28;2039;-75
2021/12/01 15:19:07;;;;;;;;;;;9.70;99.90;;;8.49;65.21;93816.16;10495207;28;1946;-75
2021/12/01 15:24:11;;;;;;;;;;;9.60;99.90;;;8.62;64.77;93812.59;10472103;28;1952;-74
2021/12/01 15:29:14;;;;;;;;;;;10.00;99.90;;;8.55;64.57;93796.19;10485007;28;1955;-74
2021/12/01 15:34:33;;;;;;;;;;;9.50;99.90;;;8.52;64.41;93802.16;10471774;28;2018;-74
2021/12/01 15:39:36;;;;;;;;;;;9.50;99.90;;;8.55;63.76;93790.06;10483777;28;2061;-75
2021/12/01 15:44:39;;;;;;;;;;;9.60;99.90;;;8.54;62.99;93789.25;10469639;28;2288;-74
2021/12/01 15:49:44;;;;;;;;;;;9.60;99.90;;;8.52;63.13;93804.03;10484790;28;2386;-76
2021/12/01 15:54:47;;;;;;;;;;;9.50;99.90;;;8.36;63.40;93822.41;10482429;28;1923;-73
2021/12/01 15:59:50;;;;;;;;;;;9.40;99.90;;;8.43;63.49;93798.66;10481089;28;1943;-74
2021/12/01 16:04:52;;;;;;;;;;;9.20;99.90;;;8.69;64.67;93789.94;10501221;28;1921;-65
2021/12/01 16:09:55;;;;;;;;;;;8.70;99.90;;;8.54;62.08;93793.84;10485704;28;1904;-74
2021/12/01 16:14:59;;;;;;;;;;;9.80;99.90;;;8.38;63.52;93801.47;10476064;28;1923;-76
2021/12/01 16:20:02;;;;;;;;;;;9.40;99.90;;;8.27;64.53;93790.22;10476415;28;1992;-74
2021/12/01 16:25:05;;;;;;;;;;;9.30;99.90;;;8.34;64.25;93800.47;10481706;28;1918;-76
2021/12/01 16:30:08;;;;;;;;;;;9.30;99.90;;;8.28;64.59;93793.69;10484554;28;1268;-76
2021/12/01 16:35:11;;;;;;;;;;;9.30;99.90;;;8.38;64.52;93788.06;10482580;28;1965;-76
2021/12/01 16:40:13;;;;;;;;;;;9.40;99.90;;;8.41;65.61;93778.66;10481319;28;1958;-77
2021/12/01 16:45:16;;;;;;;;;;;9.40;99.90;;;8.33;66.62;93806.91;10477301;28;2313;-78
2021/12/01 16:50:20;;;;;;;;;;;9.40;99.90;;;8.30;67.96;93794.16;10481727;28;2074;-75
2021/12/01 16:55:23;;;;;;;;;;;9.30;99.90;;;8.28;68.39;93801.72;10479904;28;2100;-77
2021/12/01 17:00:30;;;;;;;;;;;9.30;99.90;;;8.30;68.82;93826.28;10476597;28;2206;-77
2021/12/01 17:05:32;;;;;;;;;;;9.30;99.90;;;8.32;69.23;93824.88;10483020;28;1987;-78
2021/12/01 17:10:35;;;;;;;;;;;9.40;99.90;;;8.21;71.01;93812.06;10501516;28;1884;-80
2021/12/01 17:15:38;;;;;;;;;;;9.20;99.90;;;8.04;73.20;93813.53;10492148;28;1908;-78
2021/12/01 17:21:01;;;;;;;;;;;9.20;99.90;;;7.86;77.88;93822.53;10491389;28;1727;-78
2021/12/01 17:26:05;;;;;;;;;;;9.00;99.90;;;7.46;87.22;93840.28;10486845;28;1980;-79
2021/12/01 17:31:31;;;;;;;;;;;8.70;99.90;;;7.30;86.03;93847.81;10485150;28;1896;-78
2021/12/01 17:36:36;;;;;;;;;;;8.40;99.90;;;7.20;86.86;93864.09;10503331;28;1863;-79
2021/12/01 17:41:41;;;;;;;;;;;8.20;99.90;;;7.09;86.79;93865.38;10491054;28;1937;-77
2021/12/01 17:47:03;;;;;;;;;;;8.30;99.90;;;7.05;85.58;93860.63;10500170;28;1923;-77
2021/12/01 17:52:26;;;;;;;;;;;8.10;99.90;;;7.08;86.12;93872.59;10484319;28;1895;-79
2021/12/01 17:57:49;;;;;;;;;;;8.00;99.90;;;7.07;85.12;93872.91;10486771;28;1884;-78
2021/12/01 18:03:12;;;;;;;;;;;8.10;99.90;;;7.04;84.01;93856.38;10490913;28;2136;-79
2021/12/01 18:08:35;;;;;;;;;;;8.10;99.90;;;7.01;84.37;93862.31;10505986;28;1969;-78
2021/12/01 18:13:38;;;;;;;;;;;8.10;99.90;;;7.03;82.89;93859.34;10491768;28;1938;-78
2021/12/01 18:18:41;;;;;;;;;;;8.00;99.90;;;6.97;83.67;93860.53;10501276;28;1989;-77
2021/12/01 18:23:44;;;;;;;;;;;8.00;99.90;;;6.95;82.48;93879.53;10488460;28;2154;-79
2021/12/01 18:28:47;;;;;;;;;;;7.90;99.90;;;6.91;83.64;93893.78;10475830;28;1907;-79
2021/12/01 18:33:50;;;;;;;;;;;7.80;99.90;;;6.87;83.52;93896.25;10499059;28;1915;-79
2021/12/01 18:38:53;;;;;;;;;;;7.80;99.90;;;6.83;83.92;93892.59;10504962;28;2057;-80
2021/12/01 18:43:57;;;;;;;;;;;;;;;6.84;82.36;93907.50;10516066;28;1939;-79
2021/12/01 18:49:04;;;;;;;;;;;;;;;6.73;82.55;93900.78;10531470;28;1992;-79
2021/12/01 18:54:13;;;;;;;;;;;;;;;6.75;81.21;93901.28;10530140;28;1768;-79
2021/12/01 18:59:16;;;;;;;;;;;;;;;6.76;80.86;93908.19;10541978;28;2180;-79
2021/12/01 19:04:21;;;;;;;;;;;;;;;6.65;81.26;93899.56;10518204;28;1985;-79
2021/12/01 19:09:25;;;;;;;;;;;;;;;6.64;82.24;93910.56;10496957;28;1958;-78
2021/12/01 19:14:29;;;;;;;;;;;;;;;6.62;81.90;93923.41;10503911;28;1891;-78
2021/12/01 19:19:34;;;;;;;;;;;;;;;6.52;83.08;93919.03;10505341;28;1906;-78
2021/12/01 19:24:43;;;;;;;;;;;;;;;6.52;82.86;93929.72;10515927;28;1986;-79
2021/12/01 19:29:49;;;;;;;;;;;;;;;6.45;82.67;93924.75;10498494;28;1962;-79
2021/12/01 19:34:58;;;;;;;;;;;;;;;6.40;82.83;93911.47;10527289;28;1868;-79
2021/12/01 19:40:07;;;;;;;;;;;;;;;6.32;83.47;93930.84;10543117;28;1910;-80
2021/12/01 19:45:12;;;;;;;;;;;;;;;6.45;83.17;93934.63;10545917;28;1975;-79
2021/12/01 19:50:16;;;;;;;;;;;;;;;6.44;82.82;93952.53;10541285;28;1946;-80
2021/12/01 19:55:22;;;;;;;;;;;;;;;6.47;83.13;93954.59;10514145;28;2190;-80
2021/12/01 20:00:28;;;;;;;;;;;;;;;6.51;83.39;93968.16;10517283;28;1907;-79
2021/12/01 20:05:34;;;;;;;;;;;;;;;6.52;83.19;93955.59;10515594;28;2325;-79
2021/12/01 20:10:37;;;;;;;;;;;;;;;6.49;84.31;93957.78;10510264;28;1983;-79
2021/12/01 20:15:41;;;;;;;;;;;;;;;6.45;84.58;93972.78;10510616;28;1890;-72
2021/12/01 20:20:44;;;;;;;;;;;;;;;6.39;84.68;93952.59;10476322;28;2049;-74
2021/12/01 20:25:47;;;;;;;;;;;;;;;6.35;85.47;93967.59;10477208;28;2464;-74
2021/12/01 20:30:51;;;;;;;;;;;;;;;6.48;84.04;93968.72;10480377;28;2180;-73
2021/12/01 20:35:54;;;;;;;;;;;;;;;6.41;85.35;93977.13;10501084;28;1931;-75
2021/12/01 20:40:58;;;;;;;;;;;;;;;6.36;86.88;93971.88;10499736;28;1926;-76
2021/12/01 20:46:08;;;;;;;;;;;;;;;6.36;86.78;93973.72;10496208;28;1957;-76
2021/12/01 20:56:39;;;;;;;;;;;;;;;6.36;88.72;93965.72;10503512;28;1938;-75
2021/12/01 21:01:42;;;;;;;;;;;;;;;6.35;86.75;93970.28;10496962;28;1942;-75
2021/12/01 21:06:46;;;;;;;;;;;;;;;6.36;86.53;93969.22;10484748;28;2496;-75
2021/12/01 21:11:51;;;;;;;;;;;;;;;6.40;84.11;93958.72;10494665;28;1946;-77
2021/12/01 21:16:54;;;;;;;;;;;;;;;6.36;84.86;93971.88;10485919;28;2136;-74
2021/12/01 21:21:57;;;;;;;;;;;;;;;6.43;83.77;93968.84;10480388;28;2042;-74
2021/12/01 21:27:01;;;;;;;;;;;;;;;6.31;84.14;93974.63;10468979;28;2112;-73
2021/12/01 21:32:08;;;;;;;;;;;;;;;6.25;84.38;93973.09;10469613;28;2172;-73
2021/12/01 21:37:12;;;;;;;;;;;;;;;6.15;84.28;93973.25;10483618;28;2184;-73
2021/12/01 21:42:15;;;;;;;;;;;;;;;6.08;84.63;93962.94;10478294;28;2747;-74
2021/12/01 21:47:19;;;;;;;;;;;;;;;6.03;84.76;93965.69;10494317;28;1977;-74
2021/12/01 21:52:22;;;;;;;;;;;;;;;6.09;85.08;93985.88;10498160;28;1884;-74
2021/12/01 21:57:25;;;;;;;;;;;;;;;6.04;85.05;93969.94;10493885;28;1937;-74
2021/12/01 22:02:28;;;;;;;;;;;;;;;6.05;86.13;93979.53;10493706;28;1895;-74
2021/12/01 22:07:32;;;;;;;;;;;;;;;6.23;84.68;93981.41;10501166;28;1998;-74
2021/12/01 22:12:35;;;;;;;;;;;;;;;6.27;84.03;93975.47;10504615;28;1863;-74
2021/12/01 22:17:38;;;;;;;;;;;;;;;6.25;84.86;93970.44;10510878;28;1879;-73
2021/12/01 22:22:44;;;;;;;;;;;;;;;6.30;84.04;93967.69;10499985;28;2041;-73
2021/12/01 22:27:55;;;;;;;;;;;;;;;6.33;84.52;93964.44;10499479;28;1910;-74
2021/12/01 22:32:58;;;;;;;;;;;;;;;6.31;83.23;93971.94;10498058;28;2017;-74
2021/12/01 22:38:01;;;;;;;;;;;;;;;6.37;83.66;93954.00;10502604;28;1876;-73
2021/12/01 22:43:05;;;;;;;;;;;;;;;6.30;82.59;93959.69;10503210;28;1841;-73
2021/12/01 22:48:08;;;;;;;;;;;;;;;6.31;82.98;93961.28;10501684;28;2395;-75
2021/12/01 22:53:11;;;;;;;;;;;;;;;6.35;82.08;93946.25;10502776;28;1880;-74
2021/12/01 22:58:15;;;;;;;;;;;;;;;6.33;82.15;93937.75;10508185;28;1876;-74
2021/12/01 23:03:18;;;;;;;;;;;;;;;6.28;82.79;93956.50;10498835;28;1824;-73
2021/12/01 23:08:22;;;;;;;;;;;;;;;6.23;82.26;93945.91;10499429;28;2004;-75
2021/12/01 23:13:25;;;;;;;;;;;;;;;6.15;82.75;93930.56;10486172;28;1851;-74
2021/12/01 23:18:29;;;;;;;;;;;;;;;6.09;81.91;93927.19;10490017;28;1954;-74
2021/12/01 23:28:53;;;;;;;;;;;;;;;5.89;83.65;93944.25;10486878;28;1975;-73
2021/12/01 23:33:56;;;;;;;;;;;;;;;5.80;84.36;93927.31;10482040;28;2041;-74
2021/12/01 23:39:00;;;;;;;;;;;;;;;5.68;85.30;93932.28;10489515;28;2040;-74
2021/12/01 23:44:05;;;;;;;;;;;;;;;5.67;85.68;93930.72;10482544;28;1852;-72
2021/12/01 23:54:30;;;;;;;;;;;;;;;5.63;86.79;93935.03;10497477;28;1975;-74
2021/12/01 23:59:33;;;;;;;;;;;;;;;5.59;87.40;93944.66;10484560;28;1794;-73
